createdAt,value
2019-01-11T00:07:45.481Z,5.65
2019-01-11T00:10:14.215Z,5.47
2019-01-11T00:12:42.971Z,5.75
2019-01-11T00:15:13.714Z,5.20
2019-01-11T00:17:42.502Z,5.45
2019-01-11T00:20:11.315Z,5.78
2019-01-11T00:22:39.997Z,5.83
2019-01-11T00:25:08.707Z,5.70
2019-01-11T00:27:37.416Z,5.58
2019-01-11T00:30:06.767Z,5.62
2019-01-11T00:32:35.552Z,5.80
2019-01-11T00:35:15.546Z,5.80
2019-01-11T00:37:44.268Z,5.72
2019-01-11T00:40:12.991Z,5.78
2019-01-11T00:42:41.769Z,5.95
2019-01-11T00:45:10.542Z,5.92
2019-01-11T00:47:39.158Z,5.15
2019-01-11T00:50:07.954Z,5.40
2019-01-11T00:52:36.688Z,5.47
2019-01-11T00:55:06.075Z,5.67
2019-01-11T00:57:41.807Z,5.17
2019-01-11T01:00:29.485Z,5.70
2019-01-11T01:02:58.314Z,5.53
2019-01-11T01:05:27.105Z,6.00
2019-01-11T01:10:36.602Z,5.90
2019-01-11T01:13:16.354Z,5.65
2019-01-11T01:15:45.119Z,5.80
2019-01-11T01:18:13.867Z,5.87
2019-01-11T01:20:42.541Z,6.25
2019-01-11T01:23:11.282Z,5.85
2019-01-11T01:25:40.076Z,5.78
2019-01-11T01:28:08.953Z,6.42
2019-01-11T01:30:37.703Z,6.37
2019-01-11T01:33:06.325Z,6.75
2019-01-11T01:35:35.036Z,6.35
2019-01-11T01:38:03.829Z,6.80
2019-01-11T01:40:32.547Z,6.62
2019-01-11T01:43:01.361Z,6.22
2019-01-11T01:45:30.056Z,6.20
2019-01-11T01:47:58.776Z,6.40
2019-01-11T01:50:27.504Z,6.40
2019-01-11T01:52:56.166Z,6.58
2019-01-11T01:55:24.852Z,6.58
2019-01-11T01:57:53.492Z,6.40
2019-01-11T02:00:22.336Z,6.10
2019-01-11T02:02:51.069Z,5.97
2019-01-11T02:05:19.816Z,6.85
2019-01-11T02:07:48.511Z,6.30
2019-01-11T02:10:17.156Z,6.67
2019-01-11T02:12:45.820Z,6.45
2019-01-11T02:15:14.412Z,6.70
2019-01-11T02:17:43.119Z,6.53
2019-01-11T02:20:15.057Z,7.00
2019-01-11T02:22:43.924Z,6.58
2019-01-11T02:25:14.360Z,6.67
2019-01-11T02:27:43.094Z,6.67
2019-01-11T02:30:14.944Z,6.78
2019-01-11T02:32:43.620Z,6.62
2019-01-11T02:35:12.294Z,7.20
2019-01-11T02:37:41.011Z,6.90
2019-01-11T02:40:11.222Z,7.30
2019-01-11T02:42:40.028Z,7.10
2019-01-11T02:45:09.052Z,7.22
2019-01-11T02:47:37.778Z,7.17
2019-01-11T02:50:08.398Z,7.33
2019-01-11T02:52:37.009Z,7.53
2019-01-11T02:55:06.422Z,7.50
2019-01-11T02:57:35.032Z,8.00
2019-01-11T03:03:19.154Z,7.80
2019-01-11T03:05:47.827Z,8.40
2019-01-11T03:08:16.538Z,8.00
2019-01-11T03:10:45.334Z,7.65
2019-01-11T03:13:14.069Z,8.63
2019-01-11T03:15:42.811Z,8.65
2019-01-11T03:18:11.617Z,7.87
2019-01-11T03:20:40.302Z,8.23
2019-01-11T03:23:09.092Z,8.08
2019-01-11T03:25:37.833Z,8.13
2019-01-11T03:28:06.530Z,7.90
2019-01-11T03:30:35.180Z,7.87
2019-01-11T03:33:03.948Z,8.58
2019-01-11T03:35:32.693Z,7.93
2019-01-11T03:38:01.311Z,7.67
2019-01-11T03:40:30.097Z,7.70
2019-01-11T03:42:58.913Z,8.10
2019-01-11T03:45:27.639Z,8.10
2019-01-11T03:47:56.263Z,8.25
2019-01-11T03:50:25.012Z,8.33
2019-01-11T03:52:53.757Z,8.75
2019-01-11T03:55:22.424Z,8.60
2019-01-11T03:57:51.105Z,8.43
2019-01-11T04:00:21.042Z,8.40
2019-01-11T04:02:49.793Z,9.13
2019-01-11T04:05:18.392Z,9.28
2019-01-11T04:07:47.216Z,8.68
2019-01-11T04:10:17.485Z,8.70
2019-01-11T04:12:46.212Z,9.35
2019-01-11T04:18:34.660Z,9.83
2019-01-11T04:21:03.504Z,9.47
2019-01-11T04:23:32.239Z,10.00
2019-01-11T04:28:41.751Z,9.68
2019-01-11T04:31:10.482Z,9.85
2019-01-11T04:33:39.194Z,9.53
2019-01-11T04:36:07.825Z,10.13
2019-01-11T04:38:36.494Z,10.40
2019-01-11T04:41:05.314Z,10.98
2019-01-11T04:43:34.030Z,10.65
2019-01-11T04:46:02.836Z,11.48
2019-01-11T04:48:31.663Z,12.60
2019-01-11T04:51:00.274Z,13.60
2019-01-11T04:53:29.023Z,13.93
2019-01-11T04:55:57.805Z,13.55
2019-01-11T04:58:26.498Z,13.80
2019-01-11T05:00:55.233Z,13.75
2019-01-11T05:03:23.946Z,14.60
2019-01-11T05:05:52.594Z,15.28
2019-01-11T05:08:21.345Z,15.98
2019-01-11T05:10:50.169Z,15.40
2019-01-11T05:16:31.385Z,16.12
2019-01-11T05:19:00.181Z,16.48
2019-01-11T05:21:30.614Z,16.45
2019-01-11T05:24:00.978Z,16.67
2019-01-11T05:26:35.522Z,16.87
2019-01-11T05:29:04.235Z,17.02
2019-01-11T05:31:33.014Z,17.35
2019-01-11T05:34:01.710Z,17.15
2019-01-11T05:36:30.600Z,17.60
2019-01-11T05:38:59.326Z,17.95
2019-01-11T05:41:28.014Z,18.52
2019-01-11T05:43:56.657Z,19.20
2019-01-11T05:46:25.350Z,19.55
2019-01-11T05:48:54.028Z,18.98
2019-01-11T05:51:22.911Z,20.43
2019-01-11T05:53:51.594Z,20.55
2019-01-11T05:56:21.305Z,19.92
2019-01-11T05:59:09.033Z,19.87
2019-01-11T06:01:37.770Z,20.52
2019-01-11T06:04:25.590Z,20.62
2019-01-11T06:07:13.540Z,21.90
2019-01-11T06:09:42.284Z,21.50
2019-01-11T06:12:30.245Z,22.40
2019-01-11T06:14:58.929Z,22.50
2019-01-11T06:17:27.752Z,23.00
2019-01-11T06:19:56.493Z,23.18
2019-01-11T06:22:25.164Z,23.98
2019-01-11T06:24:55.515Z,22.62
2019-01-11T06:27:26.990Z,24.80
2019-01-11T06:29:57.723Z,26.27
2019-01-11T06:32:26.416Z,23.52
2019-01-11T06:34:55.105Z,24.92
2019-01-11T06:40:18.739Z,26.55
2019-01-11T06:42:47.448Z,27.23
2019-01-11T06:45:16.308Z,26.52
2019-01-11T06:47:44.996Z,27.55
2019-01-11T06:50:14.022Z,27.13
2019-01-11T06:52:42.860Z,29.67
2019-01-11T06:55:11.579Z,29.40
2019-01-11T06:57:40.254Z,28.57
2019-01-11T07:00:10.336Z,28.30
2019-01-11T07:02:39.072Z,28.13
2019-01-11T07:05:08.221Z,28.70
2019-01-11T07:07:36.937Z,28.65
2019-01-11T07:10:07.216Z,28.30
2019-01-11T07:12:35.921Z,29.90
2019-01-11T07:15:05.001Z,29.00
2019-01-11T07:17:33.754Z,28.73
2019-01-11T07:20:05.731Z,28.73
2019-01-11T07:22:42.370Z,29.10
2019-01-11T07:25:11.163Z,30.20
2019-01-11T07:27:58.986Z,29.10
2019-01-11T07:36:29.018Z,29.27
2019-01-11T07:38:57.954Z,28.77
2019-01-11T07:41:26.654Z,28.87
2019-01-11T07:43:55.417Z,30.12
2019-01-11T07:46:24.213Z,29.50
2019-01-11T07:48:53.017Z,29.92
2019-01-11T07:51:21.678Z,29.67
2019-01-11T07:53:50.489Z,30.25
2019-01-11T07:56:19.305Z,28.85
2019-01-11T07:58:48.054Z,28.77
2019-01-11T08:01:16.854Z,29.55
2019-01-11T08:03:45.543Z,28.47
2019-01-11T08:06:14.296Z,27.90
2019-01-11T08:08:43.065Z,26.82
2019-01-11T08:11:12.133Z,28.05
2019-01-11T08:13:40.809Z,27.40
2019-01-11T08:16:09.583Z,28.52
2019-01-11T08:18:38.268Z,28.65
2019-01-11T08:21:07.169Z,27.73
2019-01-11T08:23:36.037Z,26.48
2019-01-11T08:26:04.932Z,27.87
2019-01-11T08:28:34.510Z,26.42
2019-01-11T08:31:03.186Z,25.15
2019-01-11T08:33:33.472Z,25.97
2019-01-11T08:36:02.396Z,25.68
2019-01-11T08:38:31.113Z,25.43
2019-01-11T08:40:59.909Z,26.77
2019-01-11T08:43:28.674Z,24.55
2019-01-11T08:45:57.437Z,25.43
2019-01-11T08:48:27.622Z,26.25
2019-01-11T08:51:02.450Z,25.95
2019-01-11T08:53:46.161Z,28.73
2019-01-11T08:56:15.484Z,26.57
2019-01-11T09:01:25.834Z,26.07
2019-01-11T09:03:54.601Z,26.70
2019-01-11T09:06:23.248Z,25.45
2019-01-11T09:08:51.924Z,25.00
2019-01-11T09:11:20.704Z,26.25
2019-01-11T09:13:49.469Z,25.90
2019-01-11T09:16:20.711Z,22.98
2019-01-11T09:18:56.221Z,22.35
2019-01-11T09:21:24.901Z,23.52
2019-01-11T09:23:53.616Z,24.40
2019-01-11T09:26:22.397Z,24.95
2019-01-11T09:28:51.140Z,22.98
2019-01-11T09:31:20.537Z,22.98
2019-01-11T09:33:49.232Z,23.53
2019-01-11T09:36:18.037Z,23.25
2019-01-11T09:38:46.881Z,21.73
2019-01-11T09:41:15.666Z,24.63
2019-01-11T09:43:44.428Z,25.80
2019-01-11T09:46:13.168Z,25.10
2019-01-11T09:48:41.924Z,22.50
2019-01-11T09:51:15.689Z,24.77
2019-01-11T09:54:00.173Z,23.62
2019-01-11T09:56:28.826Z,23.92
2019-01-11T09:58:57.561Z,24.05
2019-01-11T10:01:26.359Z,23.85
2019-01-11T10:03:55.058Z,22.62
2019-01-11T10:06:23.742Z,23.55
2019-01-11T10:08:52.477Z,22.07
2019-01-11T10:11:21.144Z,22.75
2019-01-11T10:13:49.857Z,21.17
2019-01-11T10:19:12.634Z,21.93
2019-01-11T10:21:41.301Z,20.92
2019-01-11T10:24:10.052Z,21.30
2019-01-11T10:26:38.765Z,21.27
2019-01-11T10:29:07.517Z,21.57
2019-01-11T10:31:36.217Z,21.80
2019-01-11T10:34:05.024Z,22.05
2019-01-11T10:36:33.680Z,22.62
2019-01-11T10:39:02.431Z,22.48
2019-01-11T10:41:31.073Z,23.10
2019-01-11T10:43:59.810Z,23.07
2019-01-11T10:46:49.165Z,23.60
2019-01-11T10:49:37.212Z,23.02
2019-01-11T10:52:06.007Z,23.42
2019-01-11T10:57:24.797Z,24.00
2019-01-11T11:02:49.019Z,25.77
2019-01-11T11:05:17.834Z,24.85
2019-01-11T11:07:46.562Z,25.00
2019-01-11T11:10:15.304Z,25.30
2019-01-11T11:12:43.964Z,27.55
2019-01-11T11:15:13.188Z,26.30
2019-01-11T11:17:41.941Z,24.40
2019-01-11T11:22:51.356Z,24.95
2019-01-11T11:25:20.758Z,23.70
2019-01-11T11:27:49.597Z,24.85
2019-01-11T11:30:19.526Z,24.32
2019-01-11T11:33:07.263Z,23.83
2019-01-11T11:35:36.036Z,25.92
2019-01-11T11:38:04.743Z,25.40
2019-01-11T11:40:33.408Z,24.72
2019-01-11T11:43:02.277Z,24.90
2019-01-11T11:48:32.069Z,24.15
2019-01-11T11:51:00.813Z,23.30
2019-01-11T11:53:29.574Z,23.80
2019-01-11T11:55:58.270Z,24.00
2019-01-11T11:58:28.549Z,23.98
2019-01-11T12:00:57.308Z,22.90
2019-01-11T12:03:26.182Z,22.70
2019-01-11T12:05:55.014Z,23.47
2019-01-11T12:08:23.610Z,25.15
2019-01-11T12:10:52.285Z,25.05
2019-01-11T12:13:21.108Z,24.12
2019-01-11T12:15:50.192Z,25.27
2019-01-11T12:18:18.904Z,24.07
2019-01-11T12:20:47.573Z,25.70
2019-01-11T12:23:16.309Z,24.95
2019-01-11T12:25:45.064Z,25.37
2019-01-11T12:28:13.808Z,25.40
2019-01-11T12:30:42.525Z,24.43
2019-01-11T12:33:11.247Z,23.90
2019-01-11T12:35:39.874Z,24.12
2019-01-11T12:38:13.677Z,24.30
2019-01-11T12:40:44.559Z,24.57
2019-01-11T12:43:14.850Z,24.82
2019-01-11T12:45:43.805Z,24.30
2019-01-11T12:48:12.530Z,24.15
2019-01-11T12:50:41.271Z,24.30
2019-01-11T12:53:10.033Z,23.92
2019-01-11T12:55:38.858Z,24.80
2019-01-11T12:58:07.597Z,25.55
2019-01-11T13:00:36.486Z,25.70
2019-01-11T13:03:05.185Z,26.55
2019-01-11T13:05:33.924Z,26.75
2019-01-11T13:08:02.666Z,26.02
2019-01-11T13:10:31.464Z,26.07
2019-01-11T13:13:00.133Z,25.82
2019-01-11T13:15:28.897Z,26.48
2019-01-11T13:17:57.630Z,26.33
2019-01-11T13:20:26.477Z,26.77
2019-01-11T13:22:55.137Z,25.85
2019-01-11T13:25:23.897Z,25.32
2019-01-11T13:27:52.610Z,26.20
2019-01-11T13:30:21.244Z,25.02
2019-01-11T13:32:49.958Z,25.48
2019-01-11T13:35:18.883Z,25.68
2019-01-11T13:37:47.668Z,25.10
2019-01-11T13:40:20.449Z,25.08
2019-01-11T13:42:49.228Z,25.50
2019-01-11T13:45:18.173Z,25.65
2019-01-11T13:47:46.936Z,26.35
2019-01-11T13:50:34.847Z,26.15
2019-01-11T13:53:14.379Z,25.95
2019-01-11T13:55:43.145Z,26.23
2019-01-11T13:58:11.833Z,26.00
2019-01-11T14:00:40.744Z,26.02
2019-01-11T14:03:09.554Z,27.45
2019-01-11T14:05:38.304Z,26.87
2019-01-11T14:08:07.078Z,26.45
2019-01-11T14:10:35.927Z,27.90
2019-01-11T14:13:04.670Z,26.20
2019-01-11T14:15:35.012Z,26.17
2019-01-11T14:18:03.672Z,27.52
2019-01-11T14:20:32.570Z,28.05
2019-01-11T14:23:01.372Z,28.20
2019-01-11T14:25:30.116Z,28.07
2019-01-11T14:27:58.864Z,28.35
2019-01-11T14:30:27.699Z,28.95
2019-01-11T14:32:56.514Z,29.20
2019-01-11T14:35:25.370Z,29.20
2019-01-11T14:37:54.095Z,28.40
2019-01-11T14:40:22.819Z,28.02
2019-01-11T14:42:51.518Z,28.62
2019-01-11T14:45:20.193Z,28.57
2019-01-11T14:47:48.810Z,27.70
2019-01-11T14:50:19.432Z,27.13
2019-01-11T14:55:48.272Z,27.90
2019-01-11T14:58:16.911Z,28.25
2019-01-11T15:00:45.682Z,27.65
2019-01-11T15:03:14.501Z,28.35
2019-01-11T15:05:43.275Z,28.17
2019-01-11T15:08:12.152Z,28.77
2019-01-11T15:10:40.906Z,28.83
2019-01-11T15:13:09.689Z,28.05
2019-01-11T15:15:38.511Z,27.27
2019-01-11T15:20:55.311Z,28.27
2019-01-11T15:23:24.080Z,28.00
2019-01-11T15:25:52.965Z,28.15
2019-01-11T15:28:21.796Z,27.55
2019-01-11T15:30:50.720Z,28.00
2019-01-11T15:33:19.508Z,26.90
2019-01-11T15:35:49.791Z,27.75
2019-01-11T15:38:18.561Z,26.93
2019-01-11T15:40:47.232Z,28.50
2019-01-11T15:43:16.043Z,27.75
2019-01-11T15:45:45.037Z,28.87
2019-01-11T15:48:32.860Z,27.90
2019-01-11T15:51:01.846Z,27.80
2019-01-11T15:53:41.675Z,28.30
2019-01-11T15:56:11.255Z,27.98
2019-01-11T15:58:40.161Z,27.52
2019-01-11T16:01:08.957Z,27.22
2019-01-11T16:03:38.444Z,27.20
2019-01-11T16:06:27.850Z,27.73
2019-01-11T16:09:15.626Z,27.30
2019-01-11T16:11:46.277Z,27.80
2019-01-11T16:14:34.057Z,28.17
2019-01-11T16:17:04.619Z,28.25
2019-01-11T16:19:33.315Z,29.87
2019-01-11T16:22:02.091Z,28.10
2019-01-11T16:24:30.782Z,28.20
2019-01-11T16:26:59.543Z,28.20
2019-01-11T16:29:28.285Z,26.60
2019-01-11T16:31:56.979Z,28.75
2019-01-11T16:34:25.682Z,27.40
2019-01-11T16:36:54.415Z,29.15
2019-01-11T16:39:23.169Z,26.00
2019-01-11T16:41:52.055Z,28.15
2019-01-11T16:44:20.868Z,26.80
2019-01-11T16:46:49.497Z,26.33
2019-01-11T16:49:18.271Z,26.40
2019-01-11T16:51:47.034Z,27.73
2019-01-11T16:54:23.689Z,27.27
2019-01-11T16:56:52.430Z,26.60
2019-01-11T16:59:21.157Z,27.02
2019-01-11T17:01:50.117Z,27.75
2019-01-11T17:04:18.937Z,28.40
2019-01-11T17:06:47.754Z,27.65
2019-01-11T17:09:16.522Z,28.07
2019-01-11T17:11:45.340Z,29.00
2019-01-11T17:14:14.044Z,28.67
2019-01-11T17:16:42.814Z,29.93
2019-01-11T17:19:11.630Z,29.18
2019-01-11T17:21:40.385Z,29.07
2019-01-11T17:24:09.257Z,28.95
2019-01-11T17:26:38.075Z,28.52
2019-01-11T17:29:06.882Z,26.95
2019-01-11T17:31:35.592Z,26.90
2019-01-11T17:34:04.270Z,28.30
2019-01-11T17:36:33.042Z,28.45
2019-01-11T17:39:02.295Z,27.02
2019-01-11T17:41:32.682Z,28.73
2019-01-11T17:44:01.425Z,28.47
2019-01-11T17:46:30.493Z,27.00
2019-01-11T17:49:10.922Z,27.58
2019-01-11T17:51:39.706Z,27.67
2019-01-11T17:54:08.345Z,27.40
2019-01-11T17:56:37.047Z,27.02
2019-01-11T17:59:06.047Z,26.55
2019-01-11T18:01:34.977Z,27.03
2019-01-11T18:04:15.347Z,26.25
2019-01-11T18:06:44.198Z,26.80
2019-01-11T18:09:13.142Z,26.23
2019-01-11T18:11:42.128Z,25.88
2019-01-11T18:14:10.972Z,26.07
2019-01-11T18:16:41.305Z,25.88
2019-01-11T18:19:12.299Z,25.20
2019-01-11T18:21:41.290Z,24.40
2019-01-11T18:24:10.241Z,24.65
2019-01-11T18:26:38.898Z,25.05
2019-01-11T18:29:07.566Z,25.50
2019-01-11T18:31:36.286Z,25.75
2019-01-11T18:34:04.941Z,25.35
2019-01-11T18:36:33.604Z,25.45
2019-01-11T18:39:02.466Z,27.85
2019-01-11T18:41:33.146Z,26.75
2019-01-11T18:44:01.885Z,26.25
2019-01-11T18:46:30.722Z,25.72
2019-01-11T18:48:59.586Z,26.05
2019-01-11T18:51:28.558Z,26.23
2019-01-11T18:53:57.546Z,26.12
2019-01-11T18:56:26.350Z,27.93
2019-01-11T18:58:55.317Z,27.13
2019-01-11T19:01:24.232Z,26.55
2019-01-11T19:03:53.205Z,27.67
2019-01-11T19:06:22.123Z,27.80
2019-01-11T19:08:51.111Z,26.15
2019-01-11T19:11:19.960Z,27.02
2019-01-11T19:13:48.919Z,26.02
2019-01-11T19:16:19.083Z,26.40
2019-01-11T19:18:48.001Z,26.68
2019-01-11T19:21:16.906Z,27.30
2019-01-11T19:23:45.647Z,27.58
2019-01-11T19:26:14.349Z,27.22
2019-01-11T19:28:43.152Z,25.55
2019-01-11T19:31:26.050Z,26.87
2019-01-11T19:33:50.841Z,26.90
2019-01-11T19:36:19.802Z,26.67
2019-01-11T19:42:05.244Z,26.97
2019-01-11T19:44:34.097Z,26.30
2019-01-11T19:47:02.944Z,26.20
2019-01-11T19:49:31.931Z,26.57
2019-01-11T19:52:00.846Z,25.80
2019-01-11T19:54:29.695Z,26.42
2019-01-11T19:56:58.576Z,25.80
2019-01-11T19:59:27.890Z,26.37
2019-01-11T20:01:56.866Z,25.50
2019-01-11T20:04:25.972Z,26.73
2019-01-11T20:10:24.405Z,27.73
2019-01-11T20:15:58.024Z,28.25
2019-01-11T20:18:26.773Z,27.65
2019-01-11T20:20:57.407Z,26.95
2019-01-11T20:23:40.472Z,28.23
2019-01-11T20:26:16.857Z,28.45
2019-01-11T20:28:45.718Z,26.02
2019-01-11T20:31:14.810Z,25.90
2019-01-11T20:33:43.608Z,25.57
2019-01-11T20:36:12.357Z,25.62
2019-01-11T20:38:41.069Z,23.65
2019-01-11T20:41:09.904Z,24.20
2019-01-11T20:43:38.710Z,23.77
2019-01-11T20:46:07.453Z,24.15
2019-01-11T20:48:36.198Z,23.22
2019-01-11T20:51:04.983Z,22.77
2019-01-11T20:53:34.064Z,23.42
2019-01-11T20:56:02.977Z,24.43
2019-01-11T20:58:31.699Z,23.75
2019-01-11T21:01:00.599Z,23.87
2019-01-11T21:03:29.493Z,23.52
2019-01-11T21:05:58.437Z,23.70
2019-01-11T21:08:27.293Z,23.20
2019-01-11T21:13:44.176Z,26.27
2019-01-11T21:16:13.049Z,24.80
2019-01-11T21:18:44.407Z,24.45
2019-01-11T21:24:06.801Z,23.60
2019-01-11T21:26:35.813Z,23.60
2019-01-11T21:29:04.938Z,23.22
2019-01-11T21:31:33.696Z,23.22
2019-01-11T21:34:02.763Z,23.20
2019-01-11T21:36:31.541Z,24.80
2019-01-11T21:41:59.527Z,22.82
2019-01-11T21:44:28.363Z,23.37
2019-01-11T21:46:57.149Z,23.80
2019-01-11T21:49:28.142Z,23.75
2019-01-11T21:51:56.919Z,23.73
2019-01-11T21:54:25.730Z,23.25
2019-01-11T21:56:54.525Z,23.87
2019-01-11T21:59:23.699Z,26.05
2019-01-11T22:01:52.559Z,24.47
2019-01-11T22:04:21.405Z,24.02
2019-01-11T22:06:50.136Z,23.22
2019-01-11T22:09:18.886Z,24.82
2019-01-11T22:11:47.692Z,25.17
2019-01-11T22:14:16.636Z,23.98
2019-01-11T22:17:04.530Z,26.27
2019-01-11T22:22:34.911Z,25.40
2019-01-11T22:28:17.966Z,24.75
2019-01-11T22:30:49.829Z,26.90
2019-01-11T22:33:18.658Z,25.02
2019-01-11T22:38:27.865Z,25.13
2019-01-11T22:40:56.745Z,25.95
2019-01-11T22:46:21.147Z,24.82
2019-01-11T22:49:12.000Z,24.10
2019-01-11T22:51:41.378Z,25.70
2019-01-11T22:54:10.645Z,25.68
2019-01-11T22:56:46.230Z,24.18
2019-01-11T22:59:15.088Z,23.62
2019-01-11T23:02:03.005Z,25.15
2019-01-11T23:04:31.864Z,24.18
2019-01-11T23:07:19.813Z,22.73
2019-01-11T23:10:07.614Z,23.67
2019-01-11T23:15:40.387Z,24.60
2019-01-11T23:18:28.121Z,23.07
2019-01-11T23:20:58.653Z,22.90
2019-01-11T23:23:27.362Z,23.95
2019-01-11T23:25:56.138Z,23.32
2019-01-11T23:28:24.881Z,23.47
2019-01-11T23:30:53.872Z,23.47
2019-01-11T23:33:22.561Z,23.80
2019-01-11T23:35:52.983Z,24.60
2019-01-11T23:38:21.616Z,24.52
2019-01-11T23:40:50.373Z,24.77
2019-01-11T23:43:19.057Z,24.95
2019-01-11T23:45:47.846Z,24.10
2019-01-11T23:48:16.752Z,24.75
2019-01-11T23:50:45.509Z,24.15
2019-01-11T23:53:14.549Z,23.73
2019-01-11T23:58:25.829Z,23.77
